sensor_id;sensor_type;location;lat;lon;timestamp;temperature;humidity
11532;DHT22;5822;51.000;5.874;2023-11-19T00:02:08;13.60;99.90
11532;DHT22;5822;51.000;5.874;2023-11-19T00:04:36;13.80;99.90
11532;DHT22;5822;51.000;5.874;2023-11-19T00:07:03;13.80;99.90
11532;DHT22;5822;51.000;5.874;2023-11-19T00:09:30;13.80;99.90
11532;DHT22;5822;51.000;5.874;2023-11-19T00:11:57;13.80;99.90
11532;DHT22;5822;51.000;5.874;2023-11-19T00:14:23;13.90;99.90
11532;DHT22;5822;51.000;5.874;2023-11-19T00:16:49;13.90;99.90
11532;DHT22;5822;51.000;5.874;2023-11-19T00:19:16;13.90;99.90
11532;DHT22;5822;51.000;5.874;2023-11-19T00:21:42;13.90;99.90
11532;DHT22;5822;51.000;5.874;2023-11-19T00:24:08;13.90;99.90
11532;DHT22;5822;51.000;5.874;2023-11-19T00:26:34;13.90;99.90
11532;DHT22;5822;51.000;5.874;2023-11-19T00:28:59;13.90;99.90
11532;DHT22;5822;51.000;5.874;2023-11-19T00:31:25;13.90;99.90
11532;DHT22;5822;51.000;5.874;2023-11-19T00:33:54;13.90;99.90
11532;DHT22;5822;51.000;5.874;2023-11-19T00:36:19;13.90;99.90
11532;DHT22;5822;51.000;5.874;2023-11-19T00:38:46;13.90;99.90
11532;DHT22;5822;51.000;5.874;2023-11-19T00:41:11;13.90;99.90
11532;DHT22;5822;51.000;5.874;2023-11-19T00:43:37;13.90;99.90
11532;DHT22;5822;51.000;5.874;2023-11-19T00:46:06;13.90;99.90
11532;DHT22;5822;51.000;5.874;2023-11-19T00:48:32;14.00;99.90
11532;DHT22;5822;51.000;5.874;2023-11-19T00:50:58;14.00;99.90
11532;DHT22;5822;51.000;5.874;2023-11-19T00:53:23;14.00;99.90
11532;DHT22;5822;51.000;5.874;2023-11-19T00:55:49;14.00;99.90
11532;DHT22;5822;51.000;5.874;2023-11-19T00:58:15;14.00;99.90
11532;DHT22;5822;51.000;5.874;2023-11-19T01:00:40;14.00;99.90
11532;DHT22;5822;51.000;5.874;2023-11-19T01:03:06;14.00;99.90
11532;DHT22;5822;51.000;5.874;2023-11-19T01:05:32;14.00;99.90
11532;DHT22;5822;51.000;5.874;2023-11-19T01:07:58;14.00;99.90
11532;DHT22;5822;51.000;5.874;2023-11-19T01:10:24;14.00;99.90
11532;DHT22;5822;51.000;5.874;2023-11-19T01:12:51;14.00;99.90
11532;DHT22;5822;51.000;5.874;2023-11-19T01:15:17;14.00;99.90
11532;DHT22;5822;51.000;5.874;2023-11-19T01:17:44;14.10;99.90
11532;DHT22;5822;51.000;5.874;2023-11-19T01:20:11;14.10;99.90
11532;DHT22;5822;51.000;5.874;2023-11-19T01:22:38;14.10;99.90
11532;DHT22;5822;51.000;5.874;2023-11-19T01:25:05;14.10;99.90
11532;DHT22;5822;51.000;5.874;2023-11-19T01:27:31;14.10;99.90
11532;DHT22;5822;51.000;5.874;2023-11-19T01:29:57;14.10;99.90
11532;DHT22;5822;51.000;5.874;2023-11-19T01:32:22;14.20;99.90
11532;DHT22;5822;51.000;5.874;2023-11-19T01:34:51;14.10;99.90
11532;DHT22;5822;51.000;5.874;2023-11-19T01:37:16;14.20;99.90
11532;DHT22;5822;51.000;5.874;2023-11-19T01:39:45;14.20;99.90
11532;DHT22;5822;51.000;5.874;2023-11-19T01:42:10;14.20;99.90
11532;DHT22;5822;51.000;5.874;2023-11-19T01:44:37;14.30;99.90
11532;DHT22;5822;51.000;5.874;2023-11-19T01:47:03;14.30;99.90
11532;DHT22;5822;51.000;5.874;2023-11-19T01:49:32;14.30;99.90
11532;DHT22;5822;51.000;5.874;2023-11-19T01:51:58;14.30;99.90
11532;DHT22;5822;51.000;5.874;2023-11-19T01:54:25;14.30;99.90
11532;DHT22;5822;51.000;5.874;2023-11-19T01:56:52;14.30;99.90
11532;DHT22;5822;51.000;5.874;2023-11-19T01:59:19;14.30;99.90
11532;DHT22;5822;51.000;5.874;2023-11-19T02:01:46;14.30;99.90
11532;DHT22;5822;51.000;5.874;2023-11-19T02:04:12;14.30;99.90
11532;DHT22;5822;51.000;5.874;2023-11-19T02:06:40;14.30;99.90
11532;DHT22;5822;51.000;5.874;2023-11-19T02:09:06;14.20;99.90
11532;DHT22;5822;51.000;5.874;2023-11-19T02:11:34;14.30;99.90
11532;DHT22;5822;51.000;5.874;2023-11-19T02:14:00;14.30;99.90
11532;DHT22;5822;51.000;5.874;2023-11-19T02:16:26;14.30;99.90
11532;DHT22;5822;51.000;5.874;2023-11-19T02:18:51;14.30;99.90
11532;DHT22;5822;51.000;5.874;2023-11-19T02:21:17;14.30;99.90
11532;DHT22;5822;51.000;5.874;2023-11-19T02:23:43;14.30;99.90
11532;DHT22;5822;51.000;5.874;2023-11-19T02:28:39;14.40;99.90
11532;DHT22;5822;51.000;5.874;2023-11-19T02:31:05;14.30;99.90
11532;DHT22;5822;51.000;5.874;2023-11-19T02:33:35;14.30;99.90
11532;DHT22;5822;51.000;5.874;2023-11-19T02:36:02;14.30;99.90
11532;DHT22;5822;51.000;5.874;2023-11-19T02:38:29;14.30;99.90
11532;DHT22;5822;51.000;5.874;2023-11-19T02:40:56;14.30;99.90
11532;DHT22;5822;51.000;5.874;2023-11-19T02:43:22;14.30;99.90
11532;DHT22;5822;51.000;5.874;2023-11-19T02:45:48;14.30;99.90
11532;DHT22;5822;51.000;5.874;2023-11-19T02:48:13;14.30;99.90
11532;DHT22;5822;51.000;5.874;2023-11-19T02:50:41;14.30;99.90
11532;DHT22;5822;51.000;5.874;2023-11-19T02:53:07;14.30;99.90
11532;DHT22;5822;51.000;5.874;2023-11-19T02:55:33;14.20;99.90
11532;DHT22;5822;51.000;5.874;2023-11-19T02:58:04;14.20;99.90
11532;DHT22;5822;51.000;5.874;2023-11-19T03:00:35;14.20;99.90
11532;DHT22;5822;51.000;5.874;2023-11-19T03:03:08;14.20;99.90
11532;DHT22;5822;51.000;5.874;2023-11-19T03:05:49;14.20;99.90
11532;DHT22;5822;51.000;5.874;2023-11-19T03:08:17;14.10;99.90
11532;DHT22;5822;51.000;5.874;2023-11-19T03:10:43;14.10;99.90
11532;DHT22;5822;51.000;5.874;2023-11-19T03:13:13;14.10;99.90
11532;DHT22;5822;51.000;5.874;2023-11-19T03:15:39;14.10;99.90
11532;DHT22;5822;51.000;5.874;2023-11-19T03:18:05;14.10;99.90
11532;DHT22;5822;51.000;5.874;2023-11-19T03:20:31;14.20;99.90
11532;DHT22;5822;51.000;5.874;2023-11-19T03:22:57;14.20;99.90
11532;DHT22;5822;51.000;5.874;2023-11-19T03:25:29;14.20;99.90
11532;DHT22;5822;51.000;5.874;2023-11-19T03:28:02;14.20;99.90
11532;DHT22;5822;51.000;5.874;2023-11-19T03:30:29;14.20;99.90
11532;DHT22;5822;51.000;5.874;2023-11-19T03:32:58;14.20;99.90
11532;DHT22;5822;51.000;5.874;2023-11-19T03:35:24;14.10;99.90
11532;DHT22;5822;51.000;5.874;2023-11-19T03:37:50;14.20;99.90
11532;DHT22;5822;51.000;5.874;2023-11-19T03:40:17;14.20;99.90
11532;DHT22;5822;51.000;5.874;2023-11-19T03:42:47;14.10;99.90
11532;DHT22;5822;51.000;5.874;2023-11-19T03:45:12;14.10;99.90
11532;DHT22;5822;51.000;5.874;2023-11-19T03:47:38;14.10;99.90
11532;DHT22;5822;51.000;5.874;2023-11-19T03:50:05;14.10;99.90
11532;DHT22;5822;51.000;5.874;2023-11-19T03:52:31;14.10;99.90
11532;DHT22;5822;51.000;5.874;2023-11-19T03:54:57;14.10;99.90
11532;DHT22;5822;51.000;5.874;2023-11-19T03:57:23;14.10;99.90
11532;DHT22;5822;51.000;5.874;2023-11-19T03:59:52;14.10;99.90
11532;DHT22;5822;51.000;5.874;2023-11-19T04:02:17;14.10;99.90
11532;DHT22;5822;51.000;5.874;2023-11-19T04:04:43;14.10;99.90
11532;DHT22;5822;51.000;5.874;2023-11-19T04:07:09;14.00;99.90
11532;DHT22;5822;51.000;5.874;2023-11-19T04:09:34;14.00;99.90
11532;DHT22;5822;51.000;5.874;2023-11-19T04:12:01;14.00;99.90
11532;DHT22;5822;51.000;5.874;2023-11-19T04:14:27;14.10;99.90
11532;DHT22;5822;51.000;5.874;2023-11-19T04:16:53;14.10;99.90
11532;DHT22;5822;51.000;5.874;2023-11-19T04:19:19;14.00;99.90
11532;DHT22;5822;51.000;5.874;2023-11-19T04:21:45;14.00;99.90
11532;DHT22;5822;51.000;5.874;2023-11-19T04:24:12;14.00;99.90
11532;DHT22;5822;51.000;5.874;2023-11-19T04:26:45;14.10;99.90
11532;DHT22;5822;51.000;5.874;2023-11-19T04:29:14;14.00;99.90
11532;DHT22;5822;51.000;5.874;2023-11-19T04:31:40;14.00;99.90
11532;DHT22;5822;51.000;5.874;2023-11-19T04:34:06;14.00;99.90
11532;DHT22;5822;51.000;5.874;2023-11-19T04:36:33;14.00;99.90
11532;DHT22;5822;51.000;5.874;2023-11-19T04:39:02;14.00;99.90
11532;DHT22;5822;51.000;5.874;2023-11-19T04:41:28;14.00;99.90
11532;DHT22;5822;51.000;5.874;2023-11-19T04:43:54;14.00;99.90
11532;DHT22;5822;51.000;5.874;2023-11-19T04:46:20;14.00;99.90
11532;DHT22;5822;51.000;5.874;2023-11-19T04:48:46;13.90;99.90
11532;DHT22;5822;51.000;5.874;2023-11-19T04:51:11;13.90;99.90
11532;DHT22;5822;51.000;5.874;2023-11-19T04:53:37;13.90;99.90
11532;DHT22;5822;51.000;5.874;2023-11-19T04:56:10;13.90;99.90
11532;DHT22;5822;51.000;5.874;2023-11-19T04:58:36;14.00;99.90
11532;DHT22;5822;51.000;5.874;2023-11-19T05:01:03;13.90;99.90
11532;DHT22;5822;51.000;5.874;2023-11-19T05:03:29;14.00;99.90
11532;DHT22;5822;51.000;5.874;2023-11-19T05:05:55;14.00;99.90
11532;DHT22;5822;51.000;5.874;2023-11-19T05:08:20;14.00;99.90
11532;DHT22;5822;51.000;5.874;2023-11-19T05:10:46;13.90;99.90
11532;DHT22;5822;51.000;5.874;2023-11-19T05:13:11;13.90;99.90
11532;DHT22;5822;51.000;5.874;2023-11-19T05:15:38;13.90;99.90
11532;DHT22;5822;51.000;5.874;2023-11-19T05:18:03;13.90;99.90
11532;DHT22;5822;51.000;5.874;2023-11-19T05:20:30;13.90;99.90
11532;DHT22;5822;51.000;5.874;2023-11-19T05:22:55;13.90;99.90
11532;DHT22;5822;51.000;5.874;2023-11-19T05:25:22;13.80;99.90
11532;DHT22;5822;51.000;5.874;2023-11-19T05:27:47;13.80;99.90
11532;DHT22;5822;51.000;5.874;2023-11-19T05:30:13;13.80;99.90
11532;DHT22;5822;51.000;5.874;2023-11-19T05:32:39;13.80;99.90
11532;DHT22;5822;51.000;5.874;2023-11-19T05:35:05;13.80;99.90
11532;DHT22;5822;51.000;5.874;2023-11-19T05:37:30;13.90;99.90
11532;DHT22;5822;51.000;5.874;2023-11-19T05:39:56;13.80;99.90
11532;DHT22;5822;51.000;5.874;2023-11-19T05:42:22;13.80;99.90
11532;DHT22;5822;51.000;5.874;2023-11-19T05:44:47;13.80;99.90
11532;DHT22;5822;51.000;5.874;2023-11-19T05:47:13;13.90;99.90
11532;DHT22;5822;51.000;5.874;2023-11-19T05:49:38;13.90;99.90
11532;DHT22;5822;51.000;5.874;2023-11-19T05:52:04;13.90;99.90
11532;DHT22;5822;51.000;5.874;2023-11-19T05:54:33;13.90;99.90
11532;DHT22;5822;51.000;5.874;2023-11-19T05:57:06;13.80;99.90
11532;DHT22;5822;51.000;5.874;2023-11-19T05:59:35;13.80;99.90
11532;DHT22;5822;51.000;5.874;2023-11-19T06:02:04;13.70;99.90
11532;DHT22;5822;51.000;5.874;2023-11-19T06:04:30;13.80;99.90
11532;DHT22;5822;51.000;5.874;2023-11-19T06:06:55;13.80;99.90
11532;DHT22;5822;51.000;5.874;2023-11-19T06:09:21;13.80;99.90
11532;DHT22;5822;51.000;5.874;2023-11-19T06:11:49;13.70;99.90
11532;DHT22;5822;51.000;5.874;2023-11-19T06:14:16;13.80;99.90
11532;DHT22;5822;51.000;5.874;2023-11-19T06:16:42;13.70;99.90
11532;DHT22;5822;51.000;5.874;2023-11-19T06:19:07;13.70;99.90
11532;DHT22;5822;51.000;5.874;2023-11-19T06:21:33;13.70;99.90
11532;DHT22;5822;51.000;5.874;2023-11-19T06:23:58;13.70;99.90
11532;DHT22;5822;51.000;5.874;2023-11-19T06:26:24;13.70;99.90
11532;DHT22;5822;51.000;5.874;2023-11-19T06:28:50;13.60;99.90
11532;DHT22;5822;51.000;5.874;2023-11-19T06:31:15;13.70;99.90
11532;DHT22;5822;51.000;5.874;2023-11-19T06:33:42;13.60;99.90
11532;DHT22;5822;51.000;5.874;2023-11-19T06:36:08;13.70;99.90
11532;DHT22;5822;51.000;5.874;2023-11-19T06:38:34;13.70;99.90
11532;DHT22;5822;51.000;5.874;2023-11-19T06:41:00;13.70;99.90
11532;DHT22;5822;51.000;5.874;2023-11-19T06:43:26;13.70;99.90
11532;DHT22;5822;51.000;5.874;2023-11-19T06:45:53;13.60;99.90
11532;DHT22;5822;51.000;5.874;2023-11-19T06:48:19;13.60;99.90
11532;DHT22;5822;51.000;5.874;2023-11-19T06:50:44;13.70;99.90
11532;DHT22;5822;51.000;5.874;2023-11-19T06:53:10;13.70;99.90
11532;DHT22;5822;51.000;5.874;2023-11-19T06:55:36;13.60;99.90
11532;DHT22;5822;51.000;5.874;2023-11-19T06:58:01;13.70;99.90
11532;DHT22;5822;51.000;5.874;2023-11-19T07:00:29;13.70;99.90
11532;DHT22;5822;51.000;5.874;2023-11-19T07:02:55;13.70;99.90
11532;DHT22;5822;51.000;5.874;2023-11-19T07:05:21;13.60;99.90
11532;DHT22;5822;51.000;5.874;2023-11-19T07:07:46;13.60;99.90
11532;DHT22;5822;51.000;5.874;2023-11-19T07:10:12;13.60;99.90
11532;DHT22;5822;51.000;5.874;2023-11-19T07:12:38;13.50;99.90
11532;DHT22;5822;51.000;5.874;2023-11-19T07:15:04;13.50;99.90
11532;DHT22;5822;51.000;5.874;2023-11-19T07:17:31;13.50;99.90
11532;DHT22;5822;51.000;5.874;2023-11-19T07:19:56;13.50;99.90
11532;DHT22;5822;51.000;5.874;2023-11-19T07:22:25;13.50;99.90
11532;DHT22;5822;51.000;5.874;2023-11-19T07:24:51;13.50;99.90
11532;DHT22;5822;51.000;5.874;2023-11-19T07:27:17;13.50;99.90
11532;DHT22;5822;51.000;5.874;2023-11-19T07:29:43;13.50;99.90
11532;DHT22;5822;51.000;5.874;2023-11-19T07:32:10;13.50;99.90
11532;DHT22;5822;51.000;5.874;2023-11-19T07:34:36;13.60;99.90
11532;DHT22;5822;51.000;5.874;2023-11-19T07:37:01;13.50;99.90
11532;DHT22;5822;51.000;5.874;2023-11-19T07:39:29;13.60;99.90
11532;DHT22;5822;51.000;5.874;2023-11-19T07:41:54;13.60;99.90
11532;DHT22;5822;51.000;5.874;2023-11-19T07:44:20;13.60;99.90
11532;DHT22;5822;51.000;5.874;2023-11-19T07:46:47;13.60;99.90
11532;DHT22;5822;51.000;5.874;2023-11-19T07:49:13;13.50;99.90
11532;DHT22;5822;51.000;5.874;2023-11-19T07:51:39;13.50;99.90
11532;DHT22;5822;51.000;5.874;2023-11-19T07:54:05;13.60;99.90
11532;DHT22;5822;51.000;5.874;2023-11-19T07:56:32;13.60;99.90
11532;DHT22;5822;51.000;5.874;2023-11-19T07:58:59;13.60;99.90
11532;DHT22;5822;51.000;5.874;2023-11-19T08:01:25;13.60;99.90
11532;DHT22;5822;51.000;5.874;2023-11-19T08:03:50;13.60;99.90
11532;DHT22;5822;51.000;5.874;2023-11-19T08:06:16;13.60;99.90
11532;DHT22;5822;51.000;5.874;2023-11-19T08:08:42;13.60;99.90
11532;DHT22;5822;51.000;5.874;2023-11-19T08:11:08;13.60;99.90
11532;DHT22;5822;51.000;5.874;2023-11-19T08:13:34;13.60;99.90
11532;DHT22;5822;51.000;5.874;2023-11-19T08:15:59;13.60;99.90
11532;DHT22;5822;51.000;5.874;2023-11-19T08:18:25;13.60;99.90
11532;DHT22;5822;51.000;5.874;2023-11-19T08:20:50;13.60;99.90
11532;DHT22;5822;51.000;5.874;2023-11-19T08:23:19;13.60;99.90
11532;DHT22;5822;51.000;5.874;2023-11-19T08:25:45;13.60;99.90
11532;DHT22;5822;51.000;5.874;2023-11-19T08:28:11;13.60;99.90
11532;DHT22;5822;51.000;5.874;2023-11-19T08:30:36;13.60;99.90
11532;DHT22;5822;51.000;5.874;2023-11-19T08:33:02;13.60;99.90
11532;DHT22;5822;51.000;5.874;2023-11-19T08:35:29;13.60;99.90
11532;DHT22;5822;51.000;5.874;2023-11-19T08:37:54;13.60;99.90
11532;DHT22;5822;51.000;5.874;2023-11-19T08:40:20;13.70;99.90
11532;DHT22;5822;51.000;5.874;2023-11-19T08:42:46;13.70;99.90
11532;DHT22;5822;51.000;5.874;2023-11-19T08:45:11;13.70;99.90
11532;DHT22;5822;51.000;5.874;2023-11-19T08:47:37;13.70;99.90
11532;DHT22;5822;51.000;5.874;2023-11-19T08:50:03;13.70;99.90
11532;DHT22;5822;51.000;5.874;2023-11-19T08:52:30;13.70;99.90
11532;DHT22;5822;51.000;5.874;2023-11-19T08:54:55;13.70;99.90
11532;DHT22;5822;51.000;5.874;2023-11-19T08:57:21;13.70;99.90
11532;DHT22;5822;51.000;5.874;2023-11-19T08:59:47;13.80;99.90
11532;DHT22;5822;51.000;5.874;2023-11-19T09:02:13;13.80;99.90
11532;DHT22;5822;51.000;5.874;2023-11-19T09:04:38;13.80;99.90
11532;DHT22;5822;51.000;5.874;2023-11-19T09:07:04;13.80;99.90
11532;DHT22;5822;51.000;5.874;2023-11-19T09:09:30;13.80;99.90
11532;DHT22;5822;51.000;5.874;2023-11-19T09:11:56;13.80;99.90
11532;DHT22;5822;51.000;5.874;2023-11-19T09:14:21;13.80;99.90
11532;DHT22;5822;51.000;5.874;2023-11-19T09:16:51;13.90;99.90
11532;DHT22;5822;51.000;5.874;2023-11-19T09:19:17;13.80;99.90
11532;DHT22;5822;51.000;5.874;2023-11-19T09:21:43;13.80;99.90
11532;DHT22;5822;51.000;5.874;2023-11-19T09:24:09;13.90;99.90
11532;DHT22;5822;51.000;5.874;2023-11-19T09:26:34;13.90;99.90
11532;DHT22;5822;51.000;5.874;2023-11-19T09:29:01;14.00;99.90
11532;DHT22;5822;51.000;5.874;2023-11-19T09:31:27;14.00;99.90
11532;DHT22;5822;51.000;5.874;2023-11-19T09:33:53;13.90;99.90
11532;DHT22;5822;51.000;5.874;2023-11-19T09:36:18;14.00;99.90
11532;DHT22;5822;51.000;5.874;2023-11-19T09:38:44;14.00;99.90
11532;DHT22;5822;51.000;5.874;2023-11-19T09:41:10;14.00;99.90
11532;DHT22;5822;51.000;5.874;2023-11-19T09:43:42;14.10;99.90
11532;DHT22;5822;51.000;5.874;2023-11-19T09:46:10;14.00;99.90
11532;DHT22;5822;51.000;5.874;2023-11-19T09:48:39;14.10;99.90
11532;DHT22;5822;51.000;5.874;2023-11-19T09:51:09;14.10;99.90
11532;DHT22;5822;51.000;5.874;2023-11-19T09:53:36;14.10;99.90
11532;DHT22;5822;51.000;5.874;2023-11-19T09:56:03;14.20;99.90
11532;DHT22;5822;51.000;5.874;2023-11-19T09:58:30;14.20;99.90
11532;DHT22;5822;51.000;5.874;2023-11-19T10:00:57;14.20;99.90
11532;DHT22;5822;51.000;5.874;2023-11-19T10:03:26;14.20;99.90
11532;DHT22;5822;51.000;5.874;2023-11-19T10:05:55;14.20;99.90
11532;DHT22;5822;51.000;5.874;2023-11-19T10:08:21;14.20;99.90
11532;DHT22;5822;51.000;5.874;2023-11-19T10:10:47;14.10;99.90
11532;DHT22;5822;51.000;5.874;2023-11-19T10:13:13;14.20;99.90
11532;DHT22;5822;51.000;5.874;2023-11-19T10:15:40;14.20;99.90
11532;DHT22;5822;51.000;5.874;2023-11-19T10:18:07;14.20;99.90
11532;DHT22;5822;51.000;5.874;2023-11-19T10:20:41;14.20;99.90
11532;DHT22;5822;51.000;5.874;2023-11-19T10:23:07;14.30;99.90
11532;DHT22;5822;51.000;5.874;2023-11-19T10:25:33;14.20;99.90
11532;DHT22;5822;51.000;5.874;2023-11-19T10:27:59;14.20;99.90
11532;DHT22;5822;51.000;5.874;2023-11-19T10:30:27;14.20;99.90
11532;DHT22;5822;51.000;5.874;2023-11-19T10:33:10;14.20;99.90
11532;DHT22;5822;51.000;5.874;2023-11-19T10:35:54;14.20;99.90
11532;DHT22;5822;51.000;5.874;2023-11-19T10:38:22;14.20;99.90
11532;DHT22;5822;51.000;5.874;2023-11-19T10:40:49;14.20;99.90
11532;DHT22;5822;51.000;5.874;2023-11-19T10:43:16;14.20;99.90
11532;DHT22;5822;51.000;5.874;2023-11-19T10:45:42;14.20;99.90
11532;DHT22;5822;51.000;5.874;2023-11-19T10:48:08;14.10;99.90
11532;DHT22;5822;51.000;5.874;2023-11-19T10:50:36;14.20;99.90
11532;DHT22;5822;51.000;5.874;2023-11-19T10:53:02;14.10;99.90
11532;DHT22;5822;51.000;5.874;2023-11-19T10:55:38;14.10;99.90
11532;DHT22;5822;51.000;5.874;2023-11-19T10:58:08;14.10;99.90
11532;DHT22;5822;51.000;5.874;2023-11-19T11:00:44;14.10;99.90
11532;DHT22;5822;51.000;5.874;2023-11-19T11:03:19;14.10;99.90
11532;DHT22;5822;51.000;5.874;2023-11-19T11:05:48;14.20;99.90
11532;DHT22;5822;51.000;5.874;2023-11-19T11:08:14;14.20;99.90
11532;DHT22;5822;51.000;5.874;2023-11-19T11:10:44;14.20;99.90
11532;DHT22;5822;51.000;5.874;2023-11-19T11:13:11;14.20;99.90
11532;DHT22;5822;51.000;5.874;2023-11-19T11:15:39;14.20;99.90
11532;DHT22;5822;51.000;5.874;2023-11-19T11:18:08;14.30;99.90
11532;DHT22;5822;51.000;5.874;2023-11-19T11:20:35;14.30;99.90
11532;DHT22;5822;51.000;5.874;2023-11-19T11:23:25;14.40;99.90
11532;DHT22;5822;51.000;5.874;2023-11-19T11:31:51;14.50;99.90
11532;DHT22;5822;51.000;5.874;2023-11-19T11:37:36;14.50;99.90
11532;DHT22;5822;51.000;5.874;2023-11-19T11:40:03;14.50;99.90
11532;DHT22;5822;51.000;5.874;2023-11-19T11:42:36;14.40;99.90
11532;DHT22;5822;51.000;5.874;2023-11-19T11:50:19;14.40;99.90
11532;DHT22;5822;51.000;5.874;2023-11-19T11:55:36;14.50;99.90
11532;DHT22;5822;51.000;5.874;2023-11-19T11:58:02;14.50;99.90
11532;DHT22;5822;51.000;5.874;2023-11-19T12:00:38;14.50;99.90
11532;DHT22;5822;51.000;5.874;2023-11-19T12:03:05;14.50;99.90
11532;DHT22;5822;51.000;5.874;2023-11-19T12:05:32;14.50;99.90
11532;DHT22;5822;51.000;5.874;2023-11-19T12:08:12;14.50;99.90
11532;DHT22;5822;51.000;5.874;2023-11-19T12:10:46;14.40;99.90
11532;DHT22;5822;51.000;5.874;2023-11-19T12:13:13;14.40;99.90
11532;DHT22;5822;51.000;5.874;2023-11-19T12:20:50;14.30;99.90
11532;DHT22;5822;51.000;5.874;2023-11-19T12:23:15;14.30;99.90
11532;DHT22;5822;51.000;5.874;2023-11-19T12:25:41;14.20;99.90
11532;DHT22;5822;51.000;5.874;2023-11-19T12:28:12;14.20;99.90
11532;DHT22;5822;51.000;5.874;2023-11-19T12:30:38;14.30;99.90
11532;DHT22;5822;51.000;5.874;2023-11-19T12:33:08;14.20;99.90
11532;DHT22;5822;51.000;5.874;2023-11-19T12:35:45;14.20;99.90
11532;DHT22;5822;51.000;5.874;2023-11-19T12:38:23;14.20;99.90
11532;DHT22;5822;51.000;5.874;2023-11-19T12:41:08;14.30;99.90
11532;DHT22;5822;51.000;5.874;2023-11-19T12:43:36;14.30;99.90
11532;DHT22;5822;51.000;5.874;2023-11-19T12:46:19;14.30;99.90
11532;DHT22;5822;51.000;5.874;2023-11-19T12:48:46;14.20;99.90
11532;DHT22;5822;51.000;5.874;2023-11-19T12:51:12;14.20;99.90
11532;DHT22;5822;51.000;5.874;2023-11-19T12:53:49;14.20;99.90
11532;DHT22;5822;51.000;5.874;2023-11-19T12:56:16;14.30;99.90
11532;DHT22;5822;51.000;5.874;2023-11-19T12:58:41;14.30;99.90
11532;DHT22;5822;51.000;5.874;2023-11-19T13:01:08;14.20;99.90
11532;DHT22;5822;51.000;5.874;2023-11-19T13:03:38;14.20;99.90
11532;DHT22;5822;51.000;5.874;2023-11-19T13:06:09;14.20;99.90
11532;DHT22;5822;51.000;5.874;2023-11-19T13:11:06;14.20;99.90
11532;DHT22;5822;51.000;5.874;2023-11-19T13:13:58;14.30;99.90
11532;DHT22;5822;51.000;5.874;2023-11-19T13:16:25;14.30;99.90
11532;DHT22;5822;51.000;5.874;2023-11-19T13:18:51;14.30;99.90
11532;DHT22;5822;51.000;5.874;2023-11-19T13:21:17;14.30;99.90
11532;DHT22;5822;51.000;5.874;2023-11-19T13:23:43;14.30;99.90
11532;DHT22;5822;51.000;5.874;2023-11-19T13:26:09;14.40;99.90
11532;DHT22;5822;51.000;5.874;2023-11-19T13:28:36;14.30;99.90
11532;DHT22;5822;51.000;5.874;2023-11-19T13:31:02;14.20;99.90
11532;DHT22;5822;51.000;5.874;2023-11-19T13:33:28;14.20;99.90
11532;DHT22;5822;51.000;5.874;2023-11-19T13:35:55;14.20;99.90
11532;DHT22;5822;51.000;5.874;2023-11-19T13:38:20;14.10;99.90
11532;DHT22;5822;51.000;5.874;2023-11-19T13:40:46;14.20;99.90
11532;DHT22;5822;51.000;5.874;2023-11-19T13:43:12;14.10;99.90
11532;DHT22;5822;51.000;5.874;2023-11-19T13:45:37;14.10;99.90
11532;DHT22;5822;51.000;5.874;2023-11-19T13:48:03;14.10;99.90
11532;DHT22;5822;51.000;5.874;2023-11-19T13:50:29;14.10;99.90
11532;DHT22;5822;51.000;5.874;2023-11-19T13:52:54;14.10;99.90
11532;DHT22;5822;51.000;5.874;2023-11-19T13:55:21;14.10;99.90
11532;DHT22;5822;51.000;5.874;2023-11-19T13:57:47;14.20;99.90
11532;DHT22;5822;51.000;5.874;2023-11-19T14:00:14;14.20;99.90
11532;DHT22;5822;51.000;5.874;2023-11-19T14:02:47;14.10;99.90
11532;DHT22;5822;51.000;5.874;2023-11-19T14:05:14;14.30;99.90
11532;DHT22;5822;51.000;5.874;2023-11-19T14:07:40;14.20;99.90
11532;DHT22;5822;51.000;5.874;2023-11-19T14:10:07;14.10;99.90
11532;DHT22;5822;51.000;5.874;2023-11-19T14:12:34;14.20;99.90
11532;DHT22;5822;51.000;5.874;2023-11-19T14:15:01;14.20;99.90
11532;DHT22;5822;51.000;5.874;2023-11-19T14:17:26;14.20;99.90
11532;DHT22;5822;51.000;5.874;2023-11-19T14:19:52;14.20;99.90
11532;DHT22;5822;51.000;5.874;2023-11-19T14:22:18;14.30;99.90
11532;DHT22;5822;51.000;5.874;2023-11-19T14:24:44;14.30;99.90
11532;DHT22;5822;51.000;5.874;2023-11-19T14:27:12;14.30;99.90
11532;DHT22;5822;51.000;5.874;2023-11-19T14:29:38;14.30;99.90
11532;DHT22;5822;51.000;5.874;2023-11-19T14:32:05;14.30;99.90
11532;DHT22;5822;51.000;5.874;2023-11-19T14:34:31;14.30;99.90
11532;DHT22;5822;51.000;5.874;2023-11-19T14:36:57;14.30;99.90
11532;DHT22;5822;51.000;5.874;2023-11-19T14:39:24;14.60;99.90
11532;DHT22;5822;51.000;5.874;2023-11-19T14:41:49;14.30;99.90
11532;DHT22;5822;51.000;5.874;2023-11-19T14:44:16;14.20;99.90
11532;DHT22;5822;51.000;5.874;2023-11-19T14:46:42;14.30;99.90
11532;DHT22;5822;51.000;5.874;2023-11-19T14:49:09;14.30;99.90
11532;DHT22;5822;51.000;5.874;2023-11-19T14:51:38;14.20;99.90
11532;DHT22;5822;51.000;5.874;2023-11-19T14:54:05;14.20;99.90
11532;DHT22;5822;51.000;5.874;2023-11-19T14:56:31;14.20;99.90
11532;DHT22;5822;51.000;5.874;2023-11-19T14:58:56;14.20;99.90
11532;DHT22;5822;51.000;5.874;2023-11-19T15:01:22;14.20;99.90
11532;DHT22;5822;51.000;5.874;2023-11-19T15:03:48;14.20;99.90
11532;DHT22;5822;51.000;5.874;2023-11-19T15:06:13;14.20;99.90
11532;DHT22;5822;51.000;5.874;2023-11-19T15:08:40;14.10;99.90
11532;DHT22;5822;51.000;5.874;2023-11-19T15:11:07;14.10;99.90
11532;DHT22;5822;51.000;5.874;2023-11-19T15:13:34;14.10;99.90
11532;DHT22;5822;51.000;5.874;2023-11-19T15:16:02;14.20;99.90
11532;DHT22;5822;51.000;5.874;2023-11-19T15:18:30;14.20;99.90
11532;DHT22;5822;51.000;5.874;2023-11-19T15:20:55;14.20;99.90
11532;DHT22;5822;51.000;5.874;2023-11-19T15:23:21;14.30;99.90
11532;DHT22;5822;51.000;5.874;2023-11-19T15:25:46;14.20;99.90
11532;DHT22;5822;51.000;5.874;2023-11-19T15:28:12;14.20;99.90
11532;DHT22;5822;51.000;5.874;2023-11-19T15:30:38;14.30;99.90
11532;DHT22;5822;51.000;5.874;2023-11-19T15:33:03;14.20;99.90
11532;DHT22;5822;51.000;5.874;2023-11-19T15:35:29;14.20;99.90
11532;DHT22;5822;51.000;5.874;2023-11-19T15:37:54;14.20;99.90
11532;DHT22;5822;51.000;5.874;2023-11-19T15:40:21;14.20;99.90
11532;DHT22;5822;51.000;5.874;2023-11-19T15:42:47;14.20;99.90
11532;DHT22;5822;51.000;5.874;2023-11-19T15:45:13;14.20;99.90
11532;DHT22;5822;51.000;5.874;2023-11-19T15:47:39;14.20;99.90
11532;DHT22;5822;51.000;5.874;2023-11-19T15:50:05;14.20;99.90
11532;DHT22;5822;51.000;5.874;2023-11-19T15:52:32;14.20;99.90
11532;DHT22;5822;51.000;5.874;2023-11-19T15:54:58;14.20;99.90
11532;DHT22;5822;51.000;5.874;2023-11-19T15:57:24;14.20;99.90
11532;DHT22;5822;51.000;5.874;2023-11-19T15:59:49;14.20;99.90
11532;DHT22;5822;51.000;5.874;2023-11-19T16:02:16;14.20;99.90
11532;DHT22;5822;51.000;5.874;2023-11-19T16:04:42;14.20;99.90
11532;DHT22;5822;51.000;5.874;2023-11-19T16:07:13;14.20;99.90
11532;DHT22;5822;51.000;5.874;2023-11-19T16:09:38;14.10;99.90
11532;DHT22;5822;51.000;5.874;2023-11-19T16:12:04;14.10;99.90